Time;durP1;ratioP1;P1;durP2;ratioP2;P2;SDS_P1;SDS_P2;PMS_P1;PMS_P2;Temp;Humidity;BMP_temperature;BMP_pressure;BME280_temperature;BME280_humidity;BME280_pressure;Samples;Min_cycle;Max_cycle;Signal;HPM_P1;HPM_P2
2023/05/25 00:01:15;;;;;;;;;;;;;;;-140.72;100.00;52764.25;5008828;28;20352;-71
2023/05/25 00:03:41;;;;;;;;;;;;;;;-140.72;100.00;52784.53;5016565;28;19924;-71
2023/05/25 00:06:06;;;;;;;;;;;;;;;-140.72;100.00;52762.22;5016726;28;20020;-71
2023/05/25 00:08:31;;;;;;;;;;;;;;;-140.72;100.00;52731.75;5010005;28;19921;-71
2023/05/25 00:10:59;;;;;;;;;;;;;;;-140.72;100.00;52790.63;5015872;28;19921;-72
2023/05/25 00:13:24;;;;;;;;;;;;;;;-140.72;100.00;52774.38;5004738;28;19948;-72
2023/05/25 00:15:56;;;;;;;;;;;;;;;-140.72;100.00;52735.81;5014570;28;19932;-72
2023/05/25 00:18:21;;;;;;;;;;;;;;;-140.72;100.00;52790.63;5007823;28;19925;-71
2023/05/25 00:20:46;;;;;;;;;;;;;;;-140.72;100.00;52784.53;5009701;28;20272;-72
2023/05/25 00:23:12;;;;;;;;;;;;;;;-140.72;100.00;52786.56;5012205;28;19993;-72
2023/05/25 00:25:37;;;;;;;;;;;;;;;-140.72;100.00;52780.47;5015243;28;19922;-72
2023/05/25 00:28:03;;;;;;;;;;;;;;;-140.72;100.00;52786.56;5005040;28;19917;-72
2023/05/25 00:30:28;;;;;;;;;;;;;;;-140.72;100.00;52817.00;5010048;28;19925;-72
2023/05/25 00:32:54;;;;;;;;;;;;;;;-140.72;100.00;52764.25;5014832;28;19928;-71
2023/05/25 00:35:19;;;;;;;;;;;;;;;-140.72;100.00;52780.47;5015028;28;19932;-72
2023/05/25 00:37:45;;;;;;;;;;;;;;;-140.72;100.00;52780.47;5010086;28;20367;-71
2023/05/25 00:40:13;;;;;;;;;;;;;;;-140.72;100.00;52786.56;5002866;28;20020;-72
2023/05/25 00:42:38;;;;;;;;;;;;;;;-140.72;100.00;52709.44;5013484;28;19965;-72
2023/05/25 00:45:04;;;;;;;;;;;;;;;-140.72;100.00;52756.13;5014937;28;19922;-72
2023/05/25 00:47:30;;;;;;;;;;;;;;;-140.72;100.00;52719.59;5014312;28;19922;-72
2023/05/25 00:49:56;;;;;;;;;;;;;;;-140.72;100.00;52741.91;5007773;28;20433;-72
2023/05/25 00:52:21;;;;;;;;;;;;;;;-140.72;100.00;52743.94;5015081;28;20379;-71
2023/05/25 00:54:50;;;;;;;;;;;;;;;-140.72;100.00;52772.34;5015132;28;20005;-71
2023/05/25 00:57:16;;;;;;;;;;;;;;;-140.72;100.00;52760.19;5005302;28;19917;-71
2023/05/25 00:59:45;;;;;;;;;;;;;;;-140.72;100.00;52723.66;5013829;28;19917;-71
2023/05/25 01:02:12;;;;;;;;;;;;;;;-140.72;100.00;52723.66;5010810;28;19923;-71
2023/05/25 01:04:53;;;;;;;;;;;;;;;-140.72;100.00;52750.03;5003995;28;20454;-71
2023/05/25 01:07:22;;;;;;;;;;;;;;;-140.72;100.00;52762.22;5004288;28;19921;-72
2023/05/25 01:09:57;;;;;;;;;;;;;;;-140.72;100.00;52707.41;5000295;28;19949;-72
2023/05/25 01:12:23;;;;;;;;;;;;;;;-140.72;100.00;52750.03;4999605;28;19924;-71
2023/05/25 01:14:49;;;;;;;;;;;;;;;-140.72;100.00;52792.66;5014231;28;20024;-72
2023/05/25 01:17:14;;;;;;;;;;;;;;;-140.72;100.00;52778.44;5014375;28;19918;-72
2023/05/25 01:19:40;;;;;;;;;;;;;;;-140.72;100.00;52786.56;5013834;28;19948;-72
2023/05/25 01:22:21;;;;;;;;;;;;;;;-140.72;100.00;52768.28;5010181;28;19922;-71
2023/05/25 01:25:00;;;;;;;;;;;;;;;-140.72;100.00;52762.22;5010023;28;20004;-72
2023/05/25 01:27:58;;;;;;;;;;;;;;;-140.72;100.00;52756.13;5011608;28;19918;-71
2023/05/25 01:30:25;;;;;;;;;;;;;;;-140.72;100.00;52737.84;4990224;28;19917;-72
2023/05/25 01:32:51;;;;;;;;;;;;;;;-140.72;100.00;52731.75;5008659;28;19926;-72
2023/05/25 01:35:18;;;;;;;;;;;;;;;-140.72;100.00;52768.28;5012754;28;20347;-71
2023/05/25 01:37:44;;;;;;;;;;;;;;;-140.72;100.00;52804.81;5014156;28;20000;-72
2023/05/25 01:40:20;;;;;;;;;;;;;;;-140.72;100.00;52774.38;5013622;28;19929;-72
2023/05/25 01:42:45;;;;;;;;;;;;;;;-140.72;100.00;52705.38;4995376;28;19922;-72
2023/05/25 01:45:12;;;;;;;;;;;;;;;-140.72;100.00;52782.50;5002762;28;19930;-71
2023/05/25 01:47:44;;;;;;;;;;;;;;;-140.72;100.00;52731.75;5007663;28;19918;-72
2023/05/25 01:50:18;;;;;;;;;;;;;;;-140.72;100.00;52764.25;5013419;28;19952;-71
2023/05/25 01:52:50;;;;;;;;;;;;;;;-140.72;100.00;52784.53;4997617;28;19973;-72
2023/05/25 01:55:17;;;;;;;;;;;;;;;-140.72;100.00;52764.25;5010201;28;20012;-72
2023/05/25 01:57:48;;;;;;;;;;;;;;;-140.72;100.00;52796.72;5011382;28;19963;-72
2023/05/25 02:00:14;;;;;;;;;;;;;;;-140.72;100.00;52756.13;5015575;28;19922;-72
2023/05/25 02:02:40;;;;;;;;;;;;;;;-140.72;100.00;52798.72;5010886;28;19917;-72
2023/05/25 02:05:06;;;;;;;;;;;;;;;-140.72;100.00;52766.25;5018396;28;19921;-71
2023/05/25 02:07:32;;;;;;;;;;;;;;;-140.72;100.00;52784.53;5012567;28;19922;-71
2023/05/25 02:09:57;;;;;;;;;;;;;;;-140.72;100.00;52770.31;5016567;28;19917;-71
2023/05/25 02:12:23;;;;;;;;;;;;;;;-140.72;100.00;52780.47;5006102;28;19948;-71
2023/05/25 02:14:48;;;;;;;;;;;;;;;-140.72;100.00;52800.75;5017613;28;19918;-71
2023/05/25 02:17:13;;;;;;;;;;;;;;;-140.72;100.00;52808.88;5010357;28;19922;-71
2023/05/25 02:19:39;;;;;;;;;;;;;;;-140.72;100.00;52800.75;5018731;28;19924;-71
2023/05/25 02:22:04;;;;;;;;;;;;;;;-140.72;100.00;52776.41;5017291;28;20454;-71
2023/05/25 02:24:30;;;;;;;;;;;;;;;-140.72;100.00;52810.91;5017432;28;20008;-71
2023/05/25 02:26:55;;;;;;;;;;;;;;;-140.72;100.00;52762.22;5017971;28;19918;-71
2023/05/25 02:29:20;;;;;;;;;;;;;;;-140.72;100.00;52758.16;5018053;28;19925;-72
2023/05/25 02:31:45;;;;;;;;;;;;;;;-140.72;100.00;52733.78;5017141;28;20375;-71
2023/05/25 02:34:14;;;;;;;;;;;;;;;-140.72;100.00;52776.41;5014395;28;20403;-71
2023/05/25 02:36:42;;;;;;;;;;;;;;;-140.72;100.00;52774.38;5015315;28;20299;-71
2023/05/25 02:39:07;;;;;;;;;;;;;;;-140.72;100.00;52812.94;5018206;28;19918;-71
2023/05/25 02:41:33;;;;;;;;;;;;;;;-140.72;100.00;52782.50;4997432;28;20368;-71
2023/05/25 02:43:58;;;;;;;;;;;;;;;-140.72;100.00;52768.28;5009235;28;19925;-71
2023/05/25 02:46:25;;;;;;;;;;;;;;;-140.72;100.00;52758.16;5008769;28;19922;-71
2023/05/25 02:48:51;;;;;;;;;;;;;;;-140.72;100.00;52798.72;5004625;28;19918;-72
2023/05/25 02:51:36;;;;;;;;;;;;;;;-140.72;100.00;52764.25;5001207;28;19976;-72
2023/05/25 02:54:02;;;;;;;;;;;;;;;-140.72;100.00;52754.09;4997681;28;19968;-71
2023/05/25 02:56:33;;;;;;;;;;;;;;;-140.72;100.00;52739.88;4998355;28;19918;-72
2023/05/25 02:58:58;;;;;;;;;;;;;;;-140.72;100.00;52754.09;5007433;28;19945;-72
2023/05/25 03:01:24;;;;;;;;;;;;;;;-140.72;100.00;52713.50;5019065;28;19968;-71
2023/05/25 03:03:58;;;;;;;;;;;;;;;-140.72;100.00;52760.19;5009318;28;19976;-72
2023/05/25 03:06:24;;;;;;;;;;;;;;;-140.72;100.00;52784.53;5012608;28;19944;-72
2023/05/25 03:08:50;;;;;;;;;;;;;;;-140.72;100.00;52804.81;5012976;28;19949;-71
2023/05/25 03:11:26;;;;;;;;;;;;;;;-140.72;100.00;52752.06;5015758;28;20327;-71
2023/05/25 03:13:51;;;;;;;;;;;;;;;-140.72;100.00;52790.63;5004047;28;19918;-71
2023/05/25 03:16:16;;;;;;;;;;;;;;;-140.72;100.00;52784.53;5002272;28;19990;-72
2023/05/25 03:18:42;;;;;;;;;;;;;;;-140.72;100.00;52770.31;5017354;28;19951;-72
2023/05/25 03:21:07;;;;;;;;;;;;;;;-140.72;100.00;52772.34;5012164;28;20364;-72
2023/05/25 03:23:32;;;;;;;;;;;;;;;-140.72;100.00;52745.97;5009052;28;19922;-71
2023/05/25 03:25:58;;;;;;;;;;;;;;;-140.72;100.00;52808.88;5017111;28;19944;-71
2023/05/25 03:28:23;;;;;;;;;;;;;;;-140.72;100.00;52782.50;5017942;28;19928;-71
2023/05/25 03:30:49;;;;;;;;;;;;;;;-140.72;100.00;52782.50;5012001;28;19926;-71
2023/05/25 03:33:14;;;;;;;;;;;;;;;-140.72;100.00;52774.38;5015572;28;19925;-71
2023/05/25 03:35:39;;;;;;;;;;;;;;;-140.72;100.00;52827.16;5009620;28;19924;-71
2023/05/25 03:38:05;;;;;;;;;;;;;;;-140.72;100.00;52741.91;5016662;28;19934;-71
2023/05/25 03:40:30;;;;;;;;;;;;;;;-140.72;100.00;52752.06;5016402;28;19917;-71
2023/05/25 03:42:55;;;;;;;;;;;;;;;-140.72;100.00;52782.50;5016080;28;19918;-72
2023/05/25 03:45:20;;;;;;;;;;;;;;;-140.72;100.00;52776.41;5012560;28;20295;-71
2023/05/25 03:47:46;;;;;;;;;;;;;;;-140.72;100.00;52798.72;5015893;28;19961;-72
2023/05/25 03:50:12;;;;;;;;;;;;;;;-140.72;100.00;52780.47;5007513;28;19956;-71
2023/05/25 03:52:37;;;;;;;;;;;;;;;-140.72;100.00;52804.81;5016102;28;19917;-72
2023/05/25 03:55:04;;;;;;;;;;;;;;;-140.72;100.00;52788.59;5014709;28;19921;-71
2023/05/25 03:57:29;;;;;;;;;;;;;;;-140.72;100.00;52817.00;5005216;28;19949;-71
2023/05/25 03:59:54;;;;;;;;;;;;;;;-140.72;100.00;52835.25;5016160;28;19933;-72
2023/05/25 04:02:19;;;;;;;;;;;;;;;-140.72;100.00;52768.28;5014903;28;19964;-73
2023/05/25 04:04:44;;;;;;;;;;;;;;;-140.72;100.00;52810.91;5016439;28;20037;-73
2023/05/25 04:07:10;;;;;;;;;;;;;;;-140.72;100.00;52768.28;5010147;28;19968;-72
2023/05/25 04:09:35;;;;;;;;;;;;;;;-140.72;100.00;52821.06;5005604;28;19918;-73
2023/05/25 04:12:01;;;;;;;;;;;;;;;-140.72;100.00;52776.41;5007315;28;19925;-71
2023/05/25 04:14:26;;;;;;;;;;;;;;;-140.72;100.00;52800.75;5018135;28;20318;-71
2023/05/25 04:16:52;;;;;;;;;;;;;;;-140.72;100.00;52792.66;5014673;28;19949;-72
2023/05/25 04:19:17;;;;;;;;;;;;;;;-140.72;100.00;52806.84;5016118;28;19921;-72
2023/05/25 04:21:42;;;;;;;;;;;;;;;-140.72;100.00;52794.69;5013052;28;19921;-71
2023/05/25 04:24:07;;;;;;;;;;;;;;;-140.72;100.00;52796.72;5009849;28;20376;-72
2023/05/25 04:26:33;;;;;;;;;;;;;;;-140.72;100.00;52788.59;5016237;28;19929;-72
2023/05/25 04:29:00;;;;;;;;;;;;;;;-140.72;100.00;52780.47;5019759;28;20415;-74
2023/05/25 04:31:26;;;;;;;;;;;;;;;-140.72;100.00;52772.34;5010219;28;19960;-71
2023/05/25 04:33:51;;;;;;;;;;;;;;;-140.72;100.00;52786.56;5015477;28;19921;-72
2023/05/25 04:36:16;;;;;;;;;;;;;;;-140.72;100.00;52794.69;5015241;28;19944;-72
2023/05/25 04:38:46;;;;;;;;;;;;;;;-140.72;100.00;52782.50;5004464;28;19917;-72
2023/05/25 04:41:12;;;;;;;;;;;;;;;-140.72;100.00;52784.53;5007535;28;20008;-72
2023/05/25 04:43:38;;;;;;;;;;;;;;;-140.72;100.00;52784.53;5006607;28;20295;-73
2023/05/25 04:46:03;;;;;;;;;;;;;;;-140.72;100.00;52758.16;5014857;28;19940;-73
2023/05/25 04:48:49;;;;;;;;;;;;;;;-140.72;100.00;52804.81;4997514;28;20363;-73
2023/05/25 04:51:15;;;;;;;;;;;;;;;-140.72;100.00;52772.34;5014481;28;20041;-74
2023/05/25 04:53:40;;;;;;;;;;;;;;;-140.72;100.00;52760.19;5013581;28;19929;-72
2023/05/25 04:56:05;;;;;;;;;;;;;;;-140.72;100.00;52772.34;5015044;28;19940;-71
2023/05/25 04:58:31;;;;;;;;;;;;;;;-140.72;100.00;52764.25;5013522;28;20012;-71
2023/05/25 05:00:57;;;;;;;;;;;;;;;-140.72;100.00;52780.47;5010410;28;19925;-71
2023/05/25 05:03:22;;;;;;;;;;;;;;;-140.72;100.00;52752.06;5012498;28;19918;-71
2023/05/25 05:05:48;;;;;;;;;;;;;;;-140.72;100.00;52758.16;5013529;28;19939;-71
2023/05/25 05:08:13;;;;;;;;;;;;;;;-140.72;100.00;52776.41;5013823;28;19925;-71
2023/05/25 05:10:38;;;;;;;;;;;;;;;-140.72;100.00;52792.66;5011236;28;19928;-71
2023/05/25 05:13:04;;;;;;;;;;;;;;;-140.72;100.00;52741.91;5013557;28;19921;-71
2023/05/25 05:15:29;;;;;;;;;;;;;;;-140.72;100.00;52745.97;5009928;28;19922;-71
2023/05/25 05:17:55;;;;;;;;;;;;;;;-140.72;100.00;52808.88;5009164;28;19960;-71
2023/05/25 05:20:20;;;;;;;;;;;;;;;-140.72;100.00;52792.66;5011301;28;19921;-72
2023/05/25 05:22:45;;;;;;;;;;;;;;;-140.72;100.00;52784.53;5013542;28;19918;-71
2023/05/25 05:25:10;;;;;;;;;;;;;;;-140.72;100.00;52756.13;5007962;28;19921;-72
2023/05/25 05:27:36;;;;;;;;;;;;;;;-140.72;100.00;52772.34;5014270;28;19940;-71
2023/05/25 05:30:02;;;;;;;;;;;;;;;-140.72;100.00;52764.25;5005266;28;19921;-73
2023/05/25 05:32:27;;;;;;;;;;;;;;;-140.72;100.00;52745.97;5012613;28;19929;-73
2023/05/25 05:34:52;;;;;;;;;;;;;;;-140.72;100.00;52697.28;5008671;28;20369;-74
2023/05/25 05:37:17;;;;;;;;;;;;;;;-140.72;100.00;52758.16;5013907;28;20693;-75
2023/05/25 05:39:42;;;;;;;;;;;;;;;-140.72;100.00;52723.66;5010696;28;20280;-74
2023/05/25 05:42:08;;;;;;;;;;;;;;;-140.72;100.00;52758.16;5012999;28;20429;-75
2023/05/25 05:44:33;;;;;;;;;;;;;;;-140.72;100.00;52739.88;5010399;28;19921;-74
2023/05/25 05:46:59;;;;;;;;;;;;;;;-140.72;100.00;52764.25;5006847;28;19922;-74
2023/05/25 05:49:31;;;;;;;;;;;;;;;-140.72;100.00;52741.91;5009488;28;19925;-74
2023/05/25 05:51:56;;;;;;;;;;;;;;;-140.72;100.00;52737.84;5008390;28;19925;-74
2023/05/25 05:54:21;;;;;;;;;;;;;;;-140.72;100.00;52731.75;5010218;28;19929;-72
2023/05/25 05:56:47;;;;;;;;;;;;;;;-140.72;100.00;52727.72;5001369;28;19928;-72
2023/05/25 05:59:12;;;;;;;;;;;;;;;-140.72;100.00;52707.41;5010717;28;19925;-72
2023/05/25 06:01:37;;;;;;;;;;;;;;;-140.72;100.00;52731.75;5008284;28;19918;-72
2023/05/25 06:04:05;;;;;;;;;;;;;;;-140.72;100.00;52711.47;5004901;28;19973;-71
2023/05/25 06:06:33;;;;;;;;;;;;;;;-140.72;100.00;52754.09;5006479;28;20346;-72
2023/05/25 06:08:59;;;;;;;;;;;;;;;-140.72;100.00;52721.63;5003183;28;19918;-72
2023/05/25 06:11:25;;;;;;;;;;;;;;;-140.72;100.00;52743.94;5002093;28;19922;-72
2023/05/25 06:13:50;;;;;;;;;;;;;;;-140.72;100.00;52754.09;4996022;28;20291;-72
2023/05/25 06:16:15;;;;;;;;;;;;;;;-140.72;100.00;52735.81;4999994;28;20030;-71
2023/05/25 06:18:41;;;;;;;;;;;;;;;-140.72;100.00;52697.28;5001250;28;19940;-71
2023/05/25 06:21:06;;;;;;;;;;;;;;;-140.72;100.00;52719.59;5001261;28;19918;-72
2023/05/25 06:23:31;;;;;;;;;;;;;;;-140.72;100.00;52691.19;5010397;28;20386;-72
2023/05/25 06:25:56;;;;;;;;;;;;;;;-140.72;100.00;52705.38;5009836;28;19917;-71
2023/05/25 06:28:21;;;;;;;;;;;;;;;-140.72;100.00;52705.38;5004135;28;19921;-72
2023/05/25 06:30:47;;;;;;;;;;;;;;;-140.72;100.00;52695.25;5007885;28;20299;-72
2023/05/25 06:33:12;;;;;;;;;;;;;;;-140.72;100.00;52668.84;5005971;28;19925;-72
2023/05/25 06:35:37;;;;;;;;;;;;;;;-140.72;100.00;52660.75;4998701;28;19961;-72
2023/05/25 06:38:02;;;;;;;;;;;;;;;-140.72;100.00;52721.63;5008032;28;19917;-71
2023/05/25 06:40:28;;;;;;;;;;;;;;;-140.72;100.00;52687.13;5003536;28;19918;-72
2023/05/25 06:42:53;;;;;;;;;;;;;;;-140.72;100.00;52683.06;4996917;28;19918;-71
2023/05/25 06:45:19;;;;;;;;;;;;;;;-140.72;100.00;52644.50;4998527;28;19917;-72
2023/05/25 06:47:44;;;;;;;;;;;;;;;-140.72;100.00;52668.84;5010809;28;19945;-73
2023/05/25 06:50:27;;;;;;;;;;;;;;;-140.72;100.00;52644.50;5021275;28;19921;-73
2023/05/25 06:52:53;;;;;;;;;;;;;;;-140.72;100.00;52636.38;5007620;28;20361;-76
2023/05/25 06:55:18;;;;;;;;;;;;;;;-140.72;100.00;52668.84;5020535;28;19922;-75
2023/05/25 06:57:43;;;;;;;;;;;;;;;-140.72;100.00;52674.94;5009353;28;19972;-73
2023/05/25 07:00:11;;;;;;;;;;;;;;;-140.72;100.00;52666.84;5002408;28;19964;-73
2023/05/25 07:02:37;;;;;;;;;;;;;;;-140.72;100.00;52648.56;5014106;28;20035;-74
2023/05/25 07:05:04;;;;;;;;;;;;;;;-140.72;100.00;52652.63;5016540;28;20379;-74
2023/05/25 07:07:30;;;;;;;;;;;;;;;-140.72;100.00;52624.22;5008380;28;20283;-74
2023/05/25 07:09:55;;;;;;;;;;;;;;;-140.72;100.00;52626.25;5008791;28;19922;-74
2023/05/25 07:12:20;;;;;;;;;;;;;;;-140.72;100.00;52626.25;5002689;28;20284;-72
2023/05/25 07:14:47;;;;;;;;;;;;;;;-140.72;100.00;52618.13;5008177;28;20001;-75
2023/05/25 07:17:12;;;;;;;;;;;;;;;-140.72;100.00;52658.72;5003720;28;19945;-74
2023/05/25 07:19:38;;;;;;;;;;;;;;;-140.72;100.00;52638.41;5010584;28;19918;-74
2023/05/25 07:22:03;;;;;;;;;;;;;;;-140.72;100.00;52591.75;5014566;28;19917;-72
2023/05/25 07:24:47;;;;;;;;;;;;;;;-140.72;100.00;52614.06;5010262;28;19961;-74
2023/05/25 07:27:13;;;;;;;;;;;;;;;-140.72;100.00;52601.91;5006884;28;20298;-74
2023/05/25 07:29:38;;;;;;;;;;;;;;;-140.72;100.00;52607.97;5006254;28;19925;-73
2023/05/25 07:32:04;;;;;;;;;;;;;;;-140.72;100.00;52573.50;5002323;28;19917;-74
2023/05/25 07:34:30;;;;;;;;;;;;;;;-140.72;100.00;52565.38;5007051;28;19917;-74
2023/05/25 07:37:06;;;;;;;;;;;;;;;-140.72;100.00;52569.44;5014426;28;20330;-73
2023/05/25 07:39:31;;;;;;;;;;;;;;;-140.72;100.00;52626.25;5009184;28;19917;-72
2023/05/25 07:41:56;;;;;;;;;;;;;;;-140.72;100.00;52569.44;4996993;28;20364;-72
2023/05/25 07:44:22;;;;;;;;;;;;;;;-140.72;100.00;52575.50;5013440;28;19975;-73
2023/05/25 07:47:09;;;;;;;;;;;;;;;-140.72;100.00;52545.06;5017651;28;19918;-73
2023/05/25 07:49:40;;;;;;;;;;;;;;;-140.72;100.00;52539.00;5016065;28;20008;-73
2023/05/25 07:52:06;;;;;;;;;;;;;;;-140.72;100.00;52563.34;5011557;28;19969;-73
2023/05/25 07:54:31;;;;;;;;;;;;;;;-140.72;100.00;52530.88;5003828;28;20331;-72
2023/05/25 07:56:56;;;;;;;;;;;;;;;-140.72;100.00;52557.25;5008836;28;19917;-72
2023/05/25 07:59:21;;;;;;;;;;;;;;;-140.72;100.00;52553.19;5008421;28;19918;-73
2023/05/25 08:01:56;;;;;;;;;;;;;;;-140.72;100.00;52520.72;4996072;28;19918;-72
2023/05/25 08:04:21;;;;;;;;;;;;;;;-140.72;100.00;52496.38;5015945;28;19925;-73
2023/05/25 08:06:46;;;;;;;;;;;;;;;-140.72;94.68;52541.03;5015549;28;20375;-72
2023/05/25 08:12:23;;;;;;;;;;;;;;;-140.72;57.46;52553.19;5013769;28;19920;-73
2023/05/25 08:14:49;;;;;;;;;;;;;;;-140.72;74.42;52486.22;5012266;28;19917;-72
2023/05/25 08:17:15;;;;;;;;;;;;;;;-140.72;51.87;52543.03;5015849;28;19929;-72
2023/05/25 08:19:40;;;;;;;;;;;;;;;-140.72;50.78;52512.59;5010921;28;20375;-72
2023/05/25 08:22:05;;;;;;;;;;;;;;;-140.72;52.36;52470.00;5013587;28;19924;-74
2023/05/25 08:27:33;;;;;;;;;;;;;;;-140.72;0.00;52411.16;5013514;28;20025;-75
2023/05/25 08:30:07;;;;;;;;;;;;;;;-140.72;0.00;52407.09;5012556;28;20386;-73
2023/05/25 08:32:32;;;;;;;;;;;;;;;-140.72;0.00;52362.44;5012849;28;20405;-73
2023/05/25 08:34:57;;;;;;;;;;;;;;;-140.72;0.00;52380.72;4999462;28;19918;-73
2023/05/25 08:37:23;;;;;;;;;;;;;;;-140.72;0.00;52325.94;5002777;28;19956;-73
2023/05/25 08:39:50;;;;;;;;;;;;;;;-140.72;0.00;52386.81;5011349;28;21335;-73
2023/05/25 08:42:16;;;;;;;;;;;;;;;-140.72;0.00;52398.97;5014820;28;19918;-73
2023/05/25 08:44:41;;;;;;;;;;;;;;;-140.72;0.00;52435.50;5014657;28;19918;-73
2023/05/25 08:47:07;;;;;;;;;;;;;;;-140.72;0.00;52459.84;5014607;28;19925;-74
2023/05/25 08:49:39;;;;;;;;;;;;;;;-140.72;0.00;52455.78;5014622;28;19922;-73
2023/05/25 08:52:09;;;;;;;;;;;;;;;-140.72;0.00;52484.19;4984376;28;19968;-73
2023/05/25 08:54:35;;;;;;;;;;;;;;;-140.72;0.00;52512.59;5013418;28;19981;-73
2023/05/25 08:57:06;;;;;;;;;;;;;;;-140.72;0.00;52498.41;5003880;28;19964;-73
2023/05/25 08:59:34;;;;;;;;;;;;;;;-140.72;0.00;52496.38;5013666;28;19975;-74
2023/05/25 09:02:09;;;;;;;;;;;;;;;-140.72;0.00;52480.16;5014710;28;19917;-74
2023/05/25 09:04:34;;;;;;;;;;;;;;;-140.72;0.00;52502.47;5014516;28;20291;-74
2023/05/25 09:07:00;;;;;;;;;;;;;;;-140.72;0.00;52455.78;5014856;28;20008;-74
2023/05/25 09:09:25;;;;;;;;;;;;;;;-140.72;0.00;52484.19;5012243;28;19922;-74
2023/05/25 09:11:51;;;;;;;;;;;;;;;-140.72;0.00;52484.19;5015378;28;19925;-76
2023/05/25 09:14:46;;;;;;;;;;;;;;;-140.72;0.00;52524.78;5014097;28;19918;-75
2023/05/25 09:17:12;;;;;;;;;;;;;;;-140.72;0.00;52476.09;5003730;28;19918;-74
2023/05/25 09:19:37;;;;;;;;;;;;;;;-140.72;0.00;52472.03;5012820;28;19983;-75
2023/05/25 09:22:03;;;;;;;;;;;;;;;-140.72;0.00;52488.25;5015381;28;19917;-74
2023/05/25 09:24:29;;;;;;;;;;;;;;;-140.72;0.00;52459.84;4997565;28;20268;-74
2023/05/25 09:26:54;;;;;;;;;;;;;;;-140.72;0.00;52470.00;5015811;28;20342;-74
2023/05/25 09:29:20;;;;;;;;;;;;;;;-140.72;0.00;52461.88;5015546;28;19917;-74
2023/05/25 09:31:46;;;;;;;;;;;;;;;-140.72;0.00;52451.72;5015532;28;19925;-74
2023/05/25 09:34:11;;;;;;;;;;;;;;;-140.72;0.00;52449.72;5011376;28;19948;-74
2023/05/25 09:36:39;;;;;;;;;;;;;;;-140.72;0.00;52457.81;5012852;28;19929;-74
2023/05/25 09:39:07;;;;;;;;;;;;;;;-140.72;0.00;52439.56;5000689;28;20013;-73
2023/05/25 09:41:32;;;;;;;;;;;;;;;-140.72;0.00;52421.28;5011885;28;19964;-74
2023/05/25 09:43:58;;;;;;;;;;;;;;;-140.72;0.00;52419.28;5008933;28;20345;-74
2023/05/25 09:46:24;;;;;;;;;;;;;;;-140.72;0.00;52388.84;5011490;28;19918;-74
2023/05/25 09:48:50;;;;;;;;;;;;;;;-140.72;0.00;52447.69;4999432;28;19968;-75
2023/05/25 09:51:16;;;;;;;;;;;;;;;-140.72;0.00;52463.91;4999579;28;19957;-74
2023/05/25 09:53:41;;;;;;;;;;;;;;;-140.72;0.00;52439.56;5008501;28;19924;-75
2023/05/25 09:56:06;;;;;;;;;;;;;;;-140.72;0.00;52467.97;5003292;28;19929;-73
2023/05/25 09:58:31;;;;;;;;;;;;;;;-140.72;0.00;52484.19;5001613;28;19932;-74
2023/05/25 10:00:57;;;;;;;;;;;;;;;-140.72;0.00;52496.38;4999722;28;19918;-73
2023/05/25 10:03:22;;;;;;;;;;;;;;;-140.72;0.00;52411.16;5001204;28;20375;-73
2023/05/25 10:05:48;;;;;;;;;;;;;;;-140.72;0.00;52305.63;4996885;28;19917;-74
2023/05/25 10:08:16;;;;;;;;;;;;;;;-140.72;0.00;52236.66;5006011;28;19918;-74
2023/05/25 10:10:43;;;;;;;;;;;;;;;-140.72;0.00;52196.06;5014520;28;19918;-73
2023/05/25 10:13:09;;;;;;;;;;;;;;;-140.72;0.00;52192.00;5006457;28;19925;-73
2023/05/25 10:15:36;;;;;;;;;;;;;;;-140.72;0.00;52236.66;5010394;28;19921;-73
2023/05/25 10:18:02;;;;;;;;;;;;;;;-140.72;0.00;52204.19;5004313;28;19924;-73
2023/05/25 10:20:29;;;;;;;;;;;;;;;-140.72;0.00;52177.81;5000612;28;19918;-75
2023/05/25 10:22:59;;;;;;;;;;;;;;;-140.72;0.00;52206.22;5001377;28;20284;-74
2023/05/25 10:25:36;;;;;;;;;;;;;;;-140.72;0.00;52143.31;5016968;28;20087;-72
2023/05/25 10:28:06;;;;;;;;;;;;;;;-140.72;0.00;52135.19;5018981;28;19926;-71
2023/05/25 10:30:32;;;;;;;;;;;;;;;-140.72;0.00;52258.97;5008874;28;19917;-71
2023/05/25 10:32:57;;;;;;;;;;;;;;;-140.72;0.00;52277.22;5009256;28;20343;-71
2023/05/25 10:35:23;;;;;;;;;;;;;;;-140.72;0.00;52271.16;5015102;28;19917;-70
2023/05/25 10:37:51;;;;;;;;;;;;;;;-140.72;0.00;52334.03;5018589;28;19917;-71
2023/05/25 10:40:18;;;;;;;;;;;;;;;-140.72;0.00;52313.75;5008688;28;19968;-71
2023/05/25 10:42:44;;;;;;;;;;;;;;;-140.72;0.00;52334.03;5015387;28;20007;-71
2023/05/25 10:45:09;;;;;;;;;;;;;;;-140.72;0.00;52354.34;5019755;28;20510;-71
2023/05/25 10:47:40;;;;;;;;;;;;;;;-140.72;0.00;52394.91;5020553;28;19929;-70
2023/05/25 10:50:06;;;;;;;;;;;;;;;-140.72;0.00;52330.00;5000131;28;19918;-70
2023/05/25 10:52:32;;;;;;;;;;;;;;;-140.72;0.00;52317.81;5017560;28;19918;-72
2023/05/25 10:55:00;;;;;;;;;;;;;;;-140.72;0.00;52362.44;5018037;28;19917;-71
2023/05/25 10:57:26;;;;;;;;;;;;;;;-140.72;0.00;52358.41;5012548;28;20011;-71
2023/05/25 10:59:54;;;;;;;;;;;;;;;-140.72;0.00;52384.78;5009951;28;20012;-73
2023/05/25 11:02:22;;;;;;;;;;;;;;;-140.72;0.00;52327.97;5005105;28;19917;-73
2023/05/25 11:04:48;;;;;;;;;;;;;;;-140.72;0.00;52317.81;5016384;28;20339;-71
2023/05/25 11:07:15;;;;;;;;;;;;;;;-140.72;0.00;52366.50;5006457;28;19964;-70
2023/05/25 11:09:42;;;;;;;;;;;;;;;-140.72;0.00;52380.72;5014693;28;19979;-71
2023/05/25 11:12:08;;;;;;;;;;;;;;;-140.72;0.00;52382.75;5017633;28;19957;-72
2023/05/25 11:14:35;;;;;;;;;;;;;;;-140.72;0.00;52435.50;5016032;28;20005;-72
2023/05/25 11:17:13;;;;;;;;;;;;;;;-140.72;0.00;52392.88;5018685;28;19917;-72
2023/05/25 11:19:49;;;;;;;;;;;;;;;-140.72;0.00;52358.41;5007993;28;20322;-72
2023/05/25 11:22:19;;;;;;;;;;;;;;;-140.72;0.00;52356.38;5005349;28;19993;-72
2023/05/25 11:24:51;;;;;;;;;;;;;;;-140.72;0.00;52334.03;5020413;28;20008;-72
2023/05/25 11:27:23;;;;;;;;;;;;;;;-140.72;0.00;52378.69;5020418;28;20379;-72
2023/05/25 11:29:49;;;;;;;;;;;;;;;-140.72;0.00;52325.94;5028000;28;20004;-72
2023/05/25 11:32:15;;;;;;;;;;;;;;;-140.72;0.00;52336.06;5018162;28;20314;-72
2023/05/25 11:34:45;;;;;;;;;;;;;;;-140.72;0.00;52398.97;5018089;28;19924;-72
2023/05/25 11:37:10;;;;;;;;;;;;;;;-140.72;0.00;52411.16;5005519;28;19921;-72
2023/05/25 11:39:35;;;;;;;;;;;;;;;-140.72;0.00;52441.59;5017016;28;20369;-72
2023/05/25 11:42:03;;;;;;;;;;;;;;;-140.72;0.00;52435.50;5008904;28;19941;-72
2023/05/25 11:44:29;;;;;;;;;;;;;;;-140.72;0.00;52445.66;5015995;28;19921;-72
2023/05/25 11:46:56;;;;;;;;;;;;;;;-140.72;0.00;52463.91;5009603;28;19925;-74
2023/05/25 11:49:21;;;;;;;;;;;;;;;-140.72;0.00;52431.44;4998992;28;20384;-74
2023/05/25 11:51:46;;;;;;;;;;;;;;;-140.72;0.00;52463.91;4997343;28;19989;-73
2023/05/25 11:54:20;;;;;;;;;;;;;;;-140.72;0.00;52472.03;5016190;28;19924;-73
2023/05/25 11:56:45;;;;;;;;;;;;;;;-140.72;0.00;52439.56;5012031;28;20394;-73
2023/05/25 11:59:10;;;;;;;;;;;;;;;-140.72;0.00;52417.25;5011444;28;20008;-73
2023/05/25 12:01:35;;;;;;;;;;;;;;;-140.72;0.00;52449.72;5011752;28;19940;-73
2023/05/25 12:04:06;;;;;;;;;;;;;;;-140.72;0.00;52445.66;5016835;28;20398;-73
2023/05/25 12:06:39;;;;;;;;;;;;;;;-140.72;0.00;52415.22;5016347;28;19918;-73
2023/05/25 12:09:09;;;;;;;;;;;;;;;-140.72;0.00;52459.84;4985776;28;19980;-73
2023/05/25 12:11:38;;;;;;;;;;;;;;;-140.72;0.00;52443.63;5015037;28;19944;-73
2023/05/25 12:14:04;;;;;;;;;;;;;;;-140.72;0.00;52411.16;5015272;28;20358;-72
2023/05/25 12:16:31;;;;;;;;;;;;;;;-140.72;0.00;52451.72;5031556;28;19996;-73
2023/05/25 12:18:56;;;;;;;;;;;;;;;-140.72;0.00;52429.41;5020218;28;19917;-73
2023/05/25 12:21:22;;;;;;;;;;;;;;;-140.72;0.00;52443.63;5018877;28;19931;-73
2023/05/25 12:23:52;;;;;;;;;;;;;;;-140.72;0.00;52437.53;4996230;28;19960;-73
2023/05/25 12:29:20;;;;;;;;;;;;;;;-140.72;0.00;52413.19;5016272;28;19941;-74
2023/05/25 12:31:46;;;;;;;;;;;;;;;-140.72;0.00;52429.41;4997450;28;20286;-74